createdAt,value
2019-02-24T00:01:08.546Z,30.46
2019-02-24T00:03:38.859Z,30.78
2019-02-24T00:06:08.982Z,29.85
2019-02-24T00:08:39.209Z,29.69
2019-02-24T00:11:09.881Z,29.60
2019-02-24T00:13:40.109Z,30.08
2019-02-24T00:16:11.497Z,29.48
2019-02-24T00:18:41.665Z,29.10
2019-02-24T00:21:11.969Z,29.50
2019-02-24T00:23:42.233Z,28.92
2019-02-24T00:26:12.515Z,28.78
2019-02-24T00:28:42.787Z,28.21
2019-02-24T00:31:12.905Z,28.38
2019-02-24T00:33:43.267Z,28.66
2019-02-24T00:36:13.516Z,28.64
2019-02-24T00:38:43.741Z,28.63
2019-02-24T00:41:14.047Z,28.97
2019-02-24T00:43:44.209Z,29.15
2019-02-24T00:46:14.334Z,28.71
2019-02-24T00:48:47.902Z,28.88
2019-02-24T00:51:18.049Z,29.19
2019-02-24T00:53:48.287Z,29.79
2019-02-24T00:56:18.426Z,29.47
2019-02-24T00:58:48.675Z,29.34
2019-02-24T01:01:19.470Z,29.90
2019-02-24T01:03:49.712Z,29.26
2019-02-24T01:06:20.001Z,29.66
2019-02-24T01:08:50.250Z,29.95
2019-02-24T01:11:20.457Z,29.95
2019-02-24T01:13:50.669Z,30.86
2019-02-24T01:16:20.788Z,30.64
2019-02-24T01:18:50.958Z,30.40
2019-02-24T01:21:21.079Z,31.06
2019-02-24T01:23:51.235Z,31.52
2019-02-24T01:26:21.487Z,31.27
2019-02-24T01:28:51.617Z,31.65
2019-02-24T01:31:21.810Z,32.15
2019-02-24T01:33:52.065Z,32.91
2019-02-24T01:36:22.238Z,33.96
2019-02-24T01:38:52.399Z,33.83
2019-02-24T01:41:22.615Z,35.15
2019-02-24T01:43:52.783Z,35.29
2019-02-24T01:46:22.979Z,35.67
2019-02-24T01:48:53.266Z,36.03
2019-02-24T01:51:23.483Z,34.85
2019-02-24T01:53:53.788Z,35.14
2019-02-24T01:56:23.926Z,35.81
2019-02-24T01:58:54.037Z,36.02
2019-02-24T02:01:24.307Z,36.72
2019-02-24T02:03:54.448Z,35.55
2019-02-24T02:06:24.611Z,35.38
2019-02-24T02:08:54.694Z,35.57
2019-02-24T02:11:24.848Z,35.91
2019-02-24T02:13:54.949Z,35.72
2019-02-24T02:16:25.144Z,36.18
2019-02-24T02:18:55.291Z,37.16
2019-02-24T02:21:25.579Z,37.60
2019-02-24T02:23:55.767Z,37.59
2019-02-24T02:26:25.923Z,37.64
2019-02-24T02:28:56.053Z,38.60
2019-02-24T02:31:26.335Z,39.22
2019-02-24T02:33:56.634Z,40.83
2019-02-24T02:36:26.803Z,41.42
2019-02-24T02:38:57.009Z,42.25
2019-02-24T02:41:27.327Z,42.39
2019-02-24T02:43:57.466Z,42.54
2019-02-24T02:46:27.664Z,43.14
2019-02-24T02:48:57.881Z,42.55
2019-02-24T02:51:28.227Z,42.87
2019-02-24T02:53:58.426Z,43.35
2019-02-24T02:56:28.744Z,43.55
2019-02-24T02:58:58.932Z,44.13
2019-02-24T03:01:29.085Z,43.83
2019-02-24T03:03:59.287Z,44.23
2019-02-24T03:06:43.504Z,44.58
2019-02-24T03:09:13.652Z,44.17
2019-02-24T03:11:43.991Z,44.57
2019-02-24T03:14:14.270Z,44.79
2019-02-24T03:16:44.419Z,45.37
2019-02-24T03:19:14.560Z,45.31
2019-02-24T03:21:44.719Z,45.21
2019-02-24T03:24:14.941Z,45.92
2019-02-24T03:26:45.090Z,46.08
2019-02-24T03:29:15.255Z,45.80
2019-02-24T03:31:45.399Z,45.86
2019-02-24T03:34:15.667Z,45.86
2019-02-24T03:36:45.900Z,45.76
2019-02-24T03:39:16.172Z,45.64
2019-02-24T03:41:46.319Z,45.86
2019-02-24T03:44:16.705Z,45.63
2019-02-24T03:46:46.848Z,45.51
2019-02-24T03:49:17.147Z,45.30
2019-02-24T03:51:47.386Z,45.28
2019-02-24T03:54:17.639Z,45.24
2019-02-24T03:56:48.055Z,44.77
2019-02-24T03:59:18.543Z,44.34
2019-02-24T04:01:48.927Z,44.89
2019-02-24T04:04:19.307Z,44.64
2019-02-24T04:06:49.543Z,44.66
2019-02-24T04:09:19.763Z,44.66
2019-02-24T04:11:50.015Z,44.20
2019-02-24T04:14:20.221Z,44.41
2019-02-24T04:16:50.534Z,44.00
2019-02-24T04:19:20.683Z,44.51
2019-02-24T04:21:50.906Z,44.10
2019-02-24T04:24:21.040Z,44.71
2019-02-24T04:26:51.197Z,44.98
2019-02-24T04:29:24.722Z,44.04
2019-02-24T04:31:53.372Z,44.29
2019-02-24T04:34:23.646Z,44.38
2019-02-24T04:36:53.805Z,44.22
2019-02-24T04:39:24.038Z,43.81
2019-02-24T04:41:54.277Z,44.19
2019-02-24T04:44:24.523Z,43.99
2019-02-24T04:46:54.728Z,44.34
2019-02-24T04:49:25.013Z,45.04
2019-02-24T04:51:55.201Z,45.47
2019-02-24T04:54:25.503Z,45.68
2019-02-24T04:56:55.693Z,46.26
2019-02-24T04:59:34.753Z,46.75
2019-02-24T05:01:57.883Z,46.91
2019-02-24T05:04:28.100Z,47.35
2019-02-24T05:06:58.387Z,47.32
2019-02-24T05:09:28.646Z,47.86
2019-02-24T05:11:58.796Z,48.33
2019-02-24T05:14:28.927Z,48.33
2019-02-24T05:16:59.115Z,48.57
2019-02-24T05:19:29.341Z,49.19
2019-02-24T05:21:59.586Z,48.94
2019-02-24T05:24:29.901Z,49.46
2019-02-24T05:27:00.202Z,49.51
2019-02-24T05:29:30.344Z,49.38
2019-02-24T05:32:00.473Z,49.37
2019-02-24T05:34:30.807Z,49.08
2019-02-24T05:37:01.068Z,50.18
2019-02-24T05:39:31.373Z,50.19
2019-02-24T05:42:01.539Z,50.74
2019-02-24T05:44:31.687Z,50.87
2019-02-24T05:47:01.952Z,50.81
2019-02-24T05:49:32.184Z,50.68
2019-02-24T05:52:02.401Z,52.68
2019-02-24T05:54:32.615Z,53.19
2019-02-24T05:57:02.768Z,53.46
2019-02-24T05:59:33.050Z,52.41
2019-02-24T06:02:03.257Z,52.48
2019-02-24T06:04:33.417Z,52.42
2019-02-24T06:07:03.656Z,52.05
2019-02-24T06:09:33.882Z,51.79
2019-02-24T06:12:04.127Z,51.18
2019-02-24T06:14:34.423Z,51.18
2019-02-24T06:17:04.690Z,51.30
2019-02-24T06:19:34.931Z,51.63
2019-02-24T06:22:05.218Z,51.10
2019-02-24T06:24:35.371Z,50.86
2019-02-24T06:27:05.656Z,50.83
2019-02-24T06:29:35.871Z,51.23
2019-02-24T06:32:06.052Z,52.71
2019-02-24T06:34:36.191Z,53.83
2019-02-24T06:37:06.304Z,54.56
2019-02-24T06:39:36.535Z,54.71
2019-02-24T06:42:06.645Z,54.36
2019-02-24T06:44:36.897Z,54.67
2019-02-24T06:47:07.177Z,54.67
2019-02-24T06:49:37.320Z,54.73
2019-02-24T06:52:07.466Z,54.76
2019-02-24T06:54:37.598Z,54.99
2019-02-24T06:57:07.819Z,54.72
2019-02-24T06:59:38.074Z,54.98
2019-02-24T07:02:08.300Z,55.43
2019-02-24T07:04:38.509Z,55.58
2019-02-24T07:07:08.721Z,55.14
2019-02-24T07:09:38.900Z,55.26
2019-02-24T07:12:09.149Z,55.34
2019-02-24T07:14:39.414Z,55.42
2019-02-24T07:17:09.693Z,55.49
2019-02-24T07:19:39.907Z,54.81
2019-02-24T07:22:10.032Z,54.97
2019-02-24T07:24:40.285Z,54.79
2019-02-24T07:27:10.482Z,54.88
2019-02-24T07:29:40.642Z,54.66
2019-02-24T07:32:10.849Z,54.19
2019-02-24T07:34:41.002Z,51.88
2019-02-24T07:37:13.296Z,50.51
2019-02-24T07:39:43.112Z,49.94
2019-02-24T07:42:13.242Z,49.64
2019-02-24T07:44:43.528Z,48.51
2019-02-24T07:47:13.698Z,47.90
2019-02-24T07:49:43.842Z,48.37
2019-02-24T07:52:14.022Z,48.09
2019-02-24T07:54:44.167Z,48.67
2019-02-24T07:57:14.431Z,47.59
2019-02-24T07:59:44.643Z,47.80
2019-02-24T08:02:14.855Z,48.46
2019-02-24T08:04:45.056Z,48.89
2019-02-24T08:07:15.292Z,48.20
2019-02-24T08:09:45.426Z,48.16
2019-02-24T08:12:15.598Z,48.25
2019-02-24T08:14:45.996Z,47.60
2019-02-24T08:17:16.337Z,47.09
2019-02-24T08:19:46.546Z,46.16
2019-02-24T08:22:16.710Z,45.62
2019-02-24T08:24:47.034Z,40.21
2019-02-24T08:27:17.195Z,39.58
2019-02-24T08:29:47.693Z,39.13
2019-02-24T08:32:17.857Z,38.29
2019-02-24T08:34:47.976Z,37.95
2019-02-24T08:37:19.446Z,38.17
2019-02-24T08:39:49.579Z,37.84
2019-02-24T08:42:19.823Z,37.71
2019-02-24T08:44:50.111Z,37.36
2019-02-24T08:47:20.459Z,37.41
2019-02-24T08:49:50.692Z,37.69
2019-02-24T08:52:20.917Z,37.48
2019-02-24T08:54:51.279Z,36.72
2019-02-24T08:57:21.572Z,36.73
2019-02-24T08:59:51.785Z,36.17
2019-02-24T09:02:22.022Z,36.12
2019-02-24T09:04:52.303Z,36.19
2019-02-24T09:07:22.564Z,36.05
2019-02-24T09:09:52.898Z,35.44
2019-02-24T09:12:23.101Z,35.31
2019-02-24T09:14:53.373Z,35.67
2019-02-24T09:17:23.646Z,34.85
2019-02-24T09:19:53.992Z,35.04
2019-02-24T09:22:24.421Z,34.71
2019-02-24T09:24:55.088Z,34.47
2019-02-24T09:27:25.210Z,34.29
2019-02-24T09:29:55.441Z,35.45
2019-02-24T09:32:25.724Z,35.24
2019-02-24T09:34:55.947Z,34.12
2019-02-24T09:37:26.181Z,33.81
2019-02-24T09:39:56.329Z,33.53
2019-02-24T09:42:26.470Z,33.50
2019-02-24T09:44:56.740Z,33.07
2019-02-24T09:47:27.125Z,32.71
2019-02-24T09:49:57.327Z,32.13
2019-02-24T09:52:27.522Z,32.33
2019-02-24T09:54:57.833Z,31.14
2019-02-24T09:57:28.845Z,30.66
2019-02-24T09:59:59.095Z,29.92
2019-02-24T10:02:29.466Z,30.33
2019-02-24T10:04:59.740Z,29.88
2019-02-24T10:07:30.099Z,29.07
2019-02-24T10:10:00.429Z,28.78
2019-02-24T10:12:30.617Z,28.23
2019-02-24T10:15:00.954Z,27.85
2019-02-24T10:17:31.203Z,27.99
2019-02-24T10:20:01.509Z,27.68
2019-02-24T10:22:31.897Z,27.81
2019-02-24T10:25:05.875Z,28.28
2019-02-24T10:27:35.816Z,27.07
2019-02-24T10:30:06.293Z,27.21
2019-02-24T10:32:36.615Z,26.92
2019-02-24T10:35:07.329Z,26.38
2019-02-24T10:37:37.674Z,26.03
2019-02-24T10:40:12.398Z,25.83
2019-02-24T10:42:42.790Z,25.99
2019-02-24T10:45:14.075Z,25.58
2019-02-24T10:47:44.290Z,25.37
2019-02-24T10:50:14.821Z,24.82
2019-02-24T10:52:45.082Z,24.95
2019-02-24T10:55:15.494Z,24.42
2019-02-24T10:57:45.824Z,24.13
2019-02-24T11:00:16.267Z,23.56
2019-02-24T11:02:46.692Z,23.63
2019-02-24T11:05:17.254Z,23.48
2019-02-24T11:07:47.572Z,24.80
2019-02-24T11:10:17.786Z,24.72
2019-02-24T11:12:48.208Z,24.02
2019-02-24T11:15:18.615Z,24.30
2019-02-24T11:17:48.861Z,23.55
2019-02-24T11:20:19.247Z,24.36
2019-02-24T11:22:49.547Z,25.17
2019-02-24T11:25:19.855Z,25.14
2019-02-24T11:27:50.155Z,25.55
2019-02-24T11:30:39.668Z,26.00
2019-02-24T11:33:10.461Z,26.11
2019-02-24T11:35:41.502Z,26.77
2019-02-24T11:38:11.993Z,25.74
2019-02-24T11:40:42.431Z,25.41
2019-02-24T11:43:12.806Z,25.80
2019-02-24T11:45:42.971Z,25.31
2019-02-24T11:48:13.232Z,25.30
2019-02-24T11:50:43.545Z,25.13
2019-02-24T11:53:13.783Z,25.15
2019-02-24T11:55:44.100Z,24.62
2019-02-24T11:58:14.454Z,25.00
2019-02-24T12:00:44.813Z,24.50
2019-02-24T12:03:15.158Z,25.06
2019-02-24T12:05:45.351Z,24.99
2019-02-24T12:08:15.611Z,25.62
2019-02-24T12:10:45.832Z,25.70
2019-02-24T12:13:16.116Z,25.73
2019-02-24T12:15:46.425Z,25.62
2019-02-24T12:18:16.665Z,26.12
2019-02-24T12:20:46.970Z,25.65
2019-02-24T12:23:17.296Z,25.61
2019-02-24T12:25:47.650Z,25.99
2019-02-24T12:28:18.020Z,25.64
2019-02-24T12:30:48.171Z,25.92
2019-02-24T12:33:18.495Z,25.72
2019-02-24T12:35:48.810Z,25.96
2019-02-24T12:38:19.214Z,25.25
2019-02-24T12:40:49.608Z,25.34
2019-02-24T12:43:20.005Z,25.16
2019-02-24T12:45:50.211Z,25.20
2019-02-24T12:48:20.455Z,25.72
2019-02-24T12:50:50.844Z,24.92
2019-02-24T12:53:21.091Z,24.65
2019-02-24T12:55:51.337Z,24.01
2019-02-24T12:58:21.582Z,23.90
2019-02-24T13:00:52.069Z,24.30
2019-02-24T13:03:24.249Z,24.54
2019-02-24T13:05:54.699Z,24.71
2019-02-24T13:08:24.947Z,24.75
2019-02-24T13:10:55.376Z,24.65
2019-02-24T13:13:25.840Z,24.84
2019-02-24T13:15:56.049Z,24.72
2019-02-24T13:18:26.323Z,23.98
2019-02-24T13:20:56.701Z,24.28
2019-02-24T13:23:27.102Z,24.39
2019-02-24T13:25:57.411Z,24.51
2019-02-24T13:28:27.851Z,23.65
2019-02-24T13:30:58.132Z,24.23
2019-02-24T13:33:28.293Z,23.96
2019-02-24T13:35:58.492Z,23.94
2019-02-24T13:38:28.856Z,23.32
2019-02-24T13:40:58.997Z,23.20
2019-02-24T13:43:29.312Z,23.44
2019-02-24T13:45:59.680Z,23.34
2019-02-24T13:48:29.978Z,23.45
2019-02-24T13:51:00.359Z,24.54
2019-02-24T13:53:30.633Z,23.88
2019-02-24T13:56:00.843Z,23.74
2019-02-24T13:58:31.127Z,23.28
2019-02-24T14:01:01.479Z,23.40
2019-02-24T14:03:31.863Z,23.47
2019-02-24T14:06:02.293Z,23.65
2019-02-24T14:08:32.421Z,23.36
2019-02-24T14:11:02.750Z,23.30
2019-02-24T14:13:33.093Z,23.62
2019-02-24T14:16:03.505Z,22.97
2019-02-24T14:18:33.782Z,22.82
2019-02-24T14:21:04.130Z,23.56
2019-02-24T14:23:34.374Z,23.64
2019-02-24T14:26:04.728Z,23.39
2019-02-24T14:28:35.048Z,23.16
2019-02-24T14:31:05.443Z,23.27
2019-02-24T14:33:35.724Z,23.25
2019-02-24T14:36:05.919Z,23.75
2019-02-24T14:38:36.129Z,23.85
2019-02-24T14:41:06.530Z,23.59
2019-02-24T14:43:36.782Z,23.29
2019-02-24T14:46:07.046Z,23.23
2019-02-24T14:48:37.363Z,23.43
2019-02-24T14:51:07.508Z,23.08
2019-02-24T14:53:37.723Z,23.36
2019-02-24T14:56:08.053Z,23.21
2019-02-24T14:58:38.347Z,23.50
2019-02-24T15:01:08.678Z,23.17
2019-02-24T15:03:38.906Z,23.26
2019-02-24T15:06:09.192Z,23.21
2019-02-24T15:08:39.492Z,23.64
2019-02-24T15:11:09.657Z,23.88
2019-02-24T15:13:39.892Z,26.15
2019-02-24T15:16:11.776Z,27.26
2019-02-24T15:18:42.102Z,26.86
2019-02-24T15:21:12.636Z,26.59
2019-02-24T15:23:42.938Z,26.55
2019-02-24T15:26:13.282Z,26.16
2019-02-24T15:28:43.525Z,25.75
2019-02-24T15:31:13.873Z,26.29
2019-02-24T15:33:44.075Z,26.65
2019-02-24T15:36:14.491Z,26.26
2019-02-24T15:38:44.808Z,26.47
2019-02-24T15:41:15.203Z,26.33
2019-02-24T15:43:45.383Z,26.44
2019-02-24T15:46:15.756Z,26.44
2019-02-24T15:48:46.121Z,26.37
2019-02-24T15:51:16.484Z,26.11
2019-02-24T15:53:47.102Z,25.82
2019-02-24T15:56:17.443Z,26.15
2019-02-24T15:58:47.694Z,25.84
2019-02-24T16:01:18.127Z,25.70
2019-02-24T16:03:48.477Z,25.83
2019-02-24T16:06:18.948Z,25.91
2019-02-24T16:08:49.166Z,26.01
2019-02-24T16:11:19.593Z,26.75
2019-02-24T16:13:49.933Z,27.41
2019-02-24T16:16:20.288Z,28.04
2019-02-24T16:18:50.677Z,28.30
2019-02-24T16:21:20.987Z,28.50
2019-02-24T16:23:51.146Z,29.01
2019-02-24T16:26:21.468Z,28.83
2019-02-24T16:28:51.738Z,29.24
2019-02-24T16:31:22.119Z,29.33
2019-02-24T16:33:52.475Z,29.30
2019-02-24T16:36:22.838Z,29.33
2019-02-24T16:38:53.009Z,30.00
2019-02-24T16:41:23.269Z,30.13
2019-02-24T16:43:53.662Z,30.14
2019-02-24T16:46:24.179Z,30.76
2019-02-24T16:48:54.415Z,30.78
2019-02-24T16:51:24.685Z,30.68
2019-02-24T16:53:54.932Z,31.13
2019-02-24T16:56:25.190Z,31.05
2019-02-24T16:58:55.480Z,30.71
2019-02-24T17:01:25.831Z,30.63
2019-02-24T17:03:56.197Z,30.73
2019-02-24T17:06:26.529Z,31.05
2019-02-24T17:09:01.286Z,31.43
2019-02-24T17:11:28.884Z,31.91
2019-02-24T17:13:59.368Z,32.66
2019-02-24T17:16:29.705Z,33.87
2019-02-24T17:19:00.050Z,35.52
2019-02-24T17:21:30.308Z,36.14
2019-02-24T17:24:00.543Z,36.93
2019-02-24T17:26:30.833Z,37.08
2019-02-24T17:29:01.287Z,37.41
2019-02-24T17:31:31.713Z,38.09
2019-02-24T17:34:02.143Z,38.66
2019-02-24T17:36:32.451Z,38.95
2019-02-24T17:39:02.744Z,39.56
2019-02-24T17:41:32.988Z,37.79
2019-02-24T17:44:03.214Z,38.25
2019-02-24T17:46:33.606Z,37.28
2019-02-24T17:49:03.896Z,37.94
2019-02-24T17:51:34.110Z,37.15
2019-02-24T17:54:04.455Z,36.87
2019-02-24T17:56:34.798Z,36.21
2019-02-24T17:59:05.068Z,35.89
2019-02-24T18:01:35.393Z,34.68
2019-02-24T18:04:05.750Z,34.02
2019-02-24T18:06:35.927Z,35.76
2019-02-24T18:09:07.078Z,35.14
2019-02-24T18:11:37.431Z,34.36
2019-02-24T18:14:07.896Z,33.12
2019-02-24T18:16:38.312Z,32.03
2019-02-24T18:19:08.571Z,31.19
2019-02-24T18:21:38.879Z,31.79
2019-02-24T18:24:09.234Z,31.58
2019-02-24T18:26:39.506Z,31.57
2019-02-24T18:29:09.883Z,31.19
2019-02-24T18:31:41.658Z,31.21
2019-02-24T18:34:12.137Z,30.93
2019-02-24T18:36:42.453Z,31.06
2019-02-24T18:39:12.998Z,30.78
2019-02-24T18:41:43.269Z,30.36
2019-02-24T18:44:13.547Z,30.23
2019-02-24T18:46:43.764Z,30.64
2019-02-24T18:49:14.118Z,30.24
2019-02-24T18:51:44.621Z,30.84
2019-02-24T18:54:14.892Z,30.67
2019-02-24T18:56:45.483Z,30.55
2019-02-24T18:59:15.970Z,30.82
2019-02-24T19:01:46.401Z,31.00
2019-02-24T19:04:16.668Z,31.36
2019-02-24T19:06:46.960Z,31.37
2019-02-24T19:09:18.358Z,31.32
2019-02-24T19:11:48.648Z,30.62
2019-02-24T19:14:18.942Z,31.14
2019-02-24T19:16:49.311Z,30.70
2019-02-24T19:19:25.378Z,30.05
2019-02-24T19:21:51.458Z,28.52
2019-02-24T19:24:21.804Z,28.49
2019-02-24T19:26:52.213Z,28.66
2019-02-24T19:29:24.537Z,27.74
2019-02-24T19:31:54.971Z,27.55
2019-02-24T19:34:26.312Z,27.34
2019-02-24T19:36:56.737Z,26.85
2019-02-24T19:39:27.070Z,26.35
2019-02-24T19:41:57.460Z,26.41
2019-02-24T19:44:27.742Z,25.71
2019-02-24T19:46:58.163Z,25.77
2019-02-24T19:49:28.544Z,24.89
2019-02-24T19:51:59.059Z,24.96
2019-02-24T19:54:29.406Z,24.87
2019-02-24T19:56:59.605Z,24.82
2019-02-24T19:59:29.838Z,24.08
2019-02-24T20:01:59.940Z,23.78
2019-02-24T20:04:30.299Z,23.86
2019-02-24T20:07:00.565Z,24.27
2019-02-24T20:09:30.878Z,24.22
2019-02-24T20:12:01.205Z,24.40
2019-02-24T20:14:31.487Z,25.50
2019-02-24T20:17:01.810Z,25.53
2019-02-24T20:19:32.150Z,25.65
2019-02-24T20:22:02.488Z,25.96
2019-02-24T20:24:33.200Z,25.97
2019-02-24T20:27:03.615Z,26.42
2019-02-24T20:29:33.933Z,27.17
2019-02-24T20:32:04.332Z,27.15
2019-02-24T20:34:34.442Z,27.26
2019-02-24T20:37:04.726Z,27.29
2019-02-24T20:39:34.924Z,27.52
2019-02-24T20:42:05.299Z,26.95
2019-02-24T20:44:35.774Z,26.77
2019-02-24T20:47:06.127Z,27.18
2019-02-24T20:49:36.325Z,27.28
2019-02-24T20:52:06.672Z,26.85
2019-02-24T20:54:36.984Z,26.83
2019-02-24T20:57:07.407Z,26.62
2019-02-24T20:59:37.632Z,26.63
2019-02-24T21:02:08.088Z,26.84
2019-02-24T21:04:38.277Z,27.73
2019-02-24T21:07:09.093Z,27.15
2019-02-24T21:09:40.320Z,27.58
2019-02-24T21:12:11.440Z,27.69
2019-02-24T21:14:43.226Z,28.48
2019-02-24T21:17:14.112Z,28.85
2019-02-24T21:19:45.396Z,29.61
2019-02-24T21:22:16.205Z,32.29
2019-02-24T21:24:47.739Z,33.17
2019-02-24T21:27:18.113Z,33.24
2019-02-24T21:29:48.546Z,33.81
2019-02-24T21:32:18.939Z,34.07
2019-02-24T21:34:49.211Z,34.43
2019-02-24T21:37:19.478Z,35.21
2019-02-24T21:39:49.681Z,35.14
2019-02-24T21:42:19.850Z,35.04
2019-02-24T21:44:50.145Z,35.23
2019-02-24T21:47:20.470Z,35.04
2019-02-24T21:49:50.774Z,35.81
2019-02-24T21:52:21.173Z,35.52
2019-02-24T21:54:51.506Z,35.65
2019-02-24T21:57:21.768Z,36.15
2019-02-24T21:59:51.906Z,36.24
2019-02-24T22:02:22.084Z,36.89
2019-02-24T22:04:52.232Z,37.07
2019-02-24T22:07:22.410Z,37.27
2019-02-24T22:09:52.627Z,37.17
2019-02-24T22:12:22.893Z,37.49
2019-02-24T22:14:53.094Z,37.75
2019-02-24T22:17:23.345Z,38.73
2019-02-24T22:19:53.480Z,38.69
2019-02-24T22:22:23.894Z,39.44
2019-02-24T22:24:53.994Z,39.27
2019-02-24T22:27:25.064Z,39.91
2019-02-24T22:29:55.366Z,40.17
2019-02-24T22:32:25.645Z,40.46
2019-02-24T22:34:56.026Z,40.93
2019-02-24T22:37:26.320Z,40.58
2019-02-24T22:39:56.701Z,41.02
2019-02-24T22:42:27.103Z,41.84
2019-02-24T22:44:57.328Z,41.91
2019-02-24T22:47:27.492Z,42.24
2019-02-24T22:49:57.658Z,42.55
2019-02-24T22:52:27.883Z,42.58
2019-02-24T22:54:58.106Z,43.02
2019-02-24T22:57:28.436Z,42.96
2019-02-24T22:59:58.640Z,42.29
2019-02-24T23:02:28.971Z,43.17
2019-02-24T23:04:59.374Z,43.65
2019-02-24T23:07:29.707Z,43.79
2019-02-24T23:09:59.972Z,43.32
2019-02-24T23:12:30.154Z,42.93
2019-02-24T23:15:00.372Z,42.18
2019-02-24T23:17:30.958Z,42.53
2019-02-24T23:20:01.100Z,42.50
2019-02-24T23:22:31.261Z,42.04
2019-02-24T23:25:01.458Z,42.70
2019-02-24T23:27:31.789Z,43.03
2019-02-24T23:30:02.170Z,43.49
2019-02-24T23:32:32.322Z,42.96
2019-02-24T23:35:02.682Z,42.53
2019-02-24T23:37:33.039Z,43.07
2019-02-24T23:40:03.286Z,43.84
2019-02-24T23:42:33.736Z,43.70
2019-02-24T23:45:10.192Z,44.05
2019-02-24T23:47:36.058Z,43.91
2019-02-24T23:50:08.669Z,42.70
2019-02-24T23:52:38.994Z,42.68
2019-02-24T23:55:09.556Z,42.78
2019-02-24T23:57:39.854Z,42.79
